<?xml version="1.0" encoding="UTF-8" standalone="no" ?>
<gpx xmlns="http://www.topografix.com/GPX/1/1" xmlns:xsi="http://www.w3.org/2001/XMLSchema-instance" xsi:schemaLocation="http://www.topografix.com/GPX/1/1 http://www.topografix.com/GPX/1/1/gpx.xsd" version="1.1" creator="VisuGPX - https://www.visugpx.com">
  <metadata>
    <name>Eclans - Route Forestière de Moulin Rouge et de Huffel</name>
    <desc><![CDATA[Randonnée pédestre effectuée le 30 janvier 2019]]></desc>
  </metadata>
  <trk>
    <name><![CDATA[20190130130730-9Hb8u]]></name>
    <trkseg>
      <trkpt lat="47.12802" lon="5.60377">
        <ele>213</ele>
        <time>2018-02-20T07:59:50Z</time>
      </trkpt>
      <trkpt lat="47.12796" lon="5.60375">
        <ele>213</ele>
        <time>2018-02-20T07:59:56Z</time>
      </trkpt>
      <trkpt lat="47.12767" lon="5.60359">
        <ele>213</ele>
        <time>2018-02-20T08:00:20Z</time>
      </trkpt>
      <trkpt lat="47.12732" lon="5.60335">
        <ele>213</ele>
        <time>2018-02-20T08:00:46Z</time>
      </trkpt>
      <trkpt lat="47.12711" lon="5.60325">
        <ele>211</ele>
        <time>2018-02-20T08:00:59Z</time>
      </trkpt>
      <trkpt lat="47.12707" lon="5.60326">
        <ele>211</ele>
        <time>2018-02-20T08:01:03Z</time>
      </trkpt>
      <trkpt lat="47.12696" lon="5.60328">
        <ele>212</ele>
        <time>2018-02-20T08:01:11Z</time>
      </trkpt>
      <trkpt lat="47.12667" lon="5.60342">
        <ele>214</ele>
        <time>2018-02-20T08:01:34Z</time>
      </trkpt>
      <trkpt lat="47.12633" lon="5.60361">
        <ele>216</ele>
        <time>2018-02-20T08:02:01Z</time>
      </trkpt>
      <trkpt lat="47.12625" lon="5.60369">
        <ele>216</ele>
        <time>2018-02-20T08:02:08Z</time>
      </trkpt>
      <trkpt lat="47.1262" lon="5.60373">
        <ele>216</ele>
        <time>2018-02-20T08:02:12Z</time>
      </trkpt>
      <trkpt lat="47.12615" lon="5.60377">
        <ele>216</ele>
        <time>2018-02-20T08:02:16Z</time>
      </trkpt>
      <trkpt lat="47.12611" lon="5.6038">
        <ele>216</ele>
        <time>2018-02-20T08:02:20Z</time>
      </trkpt>
      <trkpt lat="47.12607" lon="5.60385">
        <ele>216</ele>
        <time>2018-02-20T08:02:25Z</time>
      </trkpt>
      <trkpt lat="47.12598" lon="5.60391">
        <ele>217</ele>
        <time>2018-02-20T08:02:31Z</time>
      </trkpt>
      <trkpt lat="47.12588" lon="5.604">
        <ele>217</ele>
        <time>2018-02-20T08:02:39Z</time>
      </trkpt>
      <trkpt lat="47.12584" lon="5.60405">
        <ele>217</ele>
        <time>2018-02-20T08:02:43Z</time>
      </trkpt>
      <trkpt lat="47.12573" lon="5.6041">
        <ele>216</ele>
        <time>2018-02-20T08:02:52Z</time>
      </trkpt>
      <trkpt lat="47.12554" lon="5.60421">
        <ele>217</ele>
        <time>2018-02-20T08:03:05Z</time>
      </trkpt>
      <trkpt lat="47.12543" lon="5.60435">
        <ele>217</ele>
        <time>2018-02-20T08:03:15Z</time>
      </trkpt>
      <trkpt lat="47.12538" lon="5.60439">
        <ele>217</ele>
        <time>2018-02-20T08:03:19Z</time>
      </trkpt>
      <trkpt lat="47.12523" lon="5.60448">
        <ele>216</ele>
        <time>2018-02-20T08:03:30Z</time>
      </trkpt>
      <trkpt lat="47.12509" lon="5.60462">
        <ele>216</ele>
        <time>2018-02-20T08:03:42Z</time>
      </trkpt>
      <trkpt lat="47.12508" lon="5.60469">
        <ele>217</ele>
        <time>2018-02-20T08:03:46Z</time>
      </trkpt>
      <trkpt lat="47.12509" lon="5.60498">
        <ele>216</ele>
        <time>2018-02-20T08:03:59Z</time>
      </trkpt>
      <trkpt lat="47.12513" lon="5.60512">
        <ele>219</ele>
        <time>2018-02-20T08:04:07Z</time>
      </trkpt>
      <trkpt lat="47.12518" lon="5.60518">
        <ele>220</ele>
        <time>2018-02-20T08:04:11Z</time>
      </trkpt>
      <trkpt lat="47.12521" lon="5.60534">
        <ele>221</ele>
        <time>2018-02-20T08:04:19Z</time>
      </trkpt>
      <trkpt lat="47.12522" lon="5.60542">
        <ele>221</ele>
        <time>2018-02-20T08:04:24Z</time>
      </trkpt>
      <trkpt lat="47.12524" lon="5.60548">
        <ele>221</ele>
        <time>2018-02-20T08:04:30Z</time>
      </trkpt>
      <trkpt lat="47.12527" lon="5.60555">
        <ele>221</ele>
        <time>2018-02-20T08:04:33Z</time>
      </trkpt>
      <trkpt lat="47.12526" lon="5.6057">
        <ele>222</ele>
        <time>2018-02-20T08:04:40Z</time>
      </trkpt>
      <trkpt lat="47.12526" lon="5.60586">
        <ele>223</ele>
        <time>2018-02-20T08:04:46Z</time>
      </trkpt>
      <trkpt lat="47.12531" lon="5.60599">
        <ele>224</ele>
        <time>2018-02-20T08:04:54Z</time>
      </trkpt>
      <trkpt lat="47.12535" lon="5.60637">
        <ele>225</ele>
        <time>2018-02-20T08:05:14Z</time>
      </trkpt>
      <trkpt lat="47.12541" lon="5.60648">
        <ele>225</ele>
        <time>2018-02-20T08:05:21Z</time>
      </trkpt>
      <trkpt lat="47.12543" lon="5.60669">
        <ele>226</ele>
        <time>2018-02-20T08:05:32Z</time>
      </trkpt>
      <trkpt lat="47.12549" lon="5.60689">
        <ele>226</ele>
        <time>2018-02-20T08:05:42Z</time>
      </trkpt>
      <trkpt lat="47.1255" lon="5.60695">
        <ele>226</ele>
        <time>2018-02-20T08:05:45Z</time>
      </trkpt>
      <trkpt lat="47.12569" lon="5.60756">
        <ele>225</ele>
        <time>2018-02-20T08:06:18Z</time>
      </trkpt>
      <trkpt lat="47.12582" lon="5.60793">
        <ele>225</ele>
        <time>2018-02-20T08:06:38Z</time>
      </trkpt>
      <trkpt lat="47.12585" lon="5.608">
        <ele>227</ele>
        <time>2018-02-20T08:06:43Z</time>
      </trkpt>
      <trkpt lat="47.12613" lon="5.60857">
        <ele>228</ele>
        <time>2018-02-20T08:07:16Z</time>
      </trkpt>
      <trkpt lat="47.12626" lon="5.60882">
        <ele>229</ele>
        <time>2018-02-20T08:07:31Z</time>
      </trkpt>
      <trkpt lat="47.12637" lon="5.60916">
        <ele>230</ele>
        <time>2018-02-20T08:07:48Z</time>
      </trkpt>
      <trkpt lat="47.1264" lon="5.6092">
        <ele>231</ele>
        <time>2018-02-20T08:07:52Z</time>
      </trkpt>
      <trkpt lat="47.12644" lon="5.60926">
        <ele>231</ele>
        <time>2018-02-20T08:07:56Z</time>
      </trkpt>
      <trkpt lat="47.1266" lon="5.60994">
        <ele>232</ele>
        <time>2018-02-20T08:08:27Z</time>
      </trkpt>
      <trkpt lat="47.12665" lon="5.61008">
        <ele>232</ele>
        <time>2018-02-20T08:08:35Z</time>
      </trkpt>
      <trkpt lat="47.12669" lon="5.61014">
        <ele>233</ele>
        <time>2018-02-20T08:08:39Z</time>
      </trkpt>
      <trkpt lat="47.12672" lon="5.61028">
        <ele>233</ele>
        <time>2018-02-20T08:08:46Z</time>
      </trkpt>
      <trkpt lat="47.12676" lon="5.61043">
        <ele>233</ele>
        <time>2018-02-20T08:08:54Z</time>
      </trkpt>
      <trkpt lat="47.12679" lon="5.61051">
        <ele>233</ele>
        <time>2018-02-20T08:08:59Z</time>
      </trkpt>
      <trkpt lat="47.12682" lon="5.61073">
        <ele>233</ele>
        <time>2018-02-20T08:09:09Z</time>
      </trkpt>
      <trkpt lat="47.12689" lon="5.61109">
        <ele>234</ele>
        <time>2018-02-20T08:09:25Z</time>
      </trkpt>
      <trkpt lat="47.12697" lon="5.61147">
        <ele>234</ele>
        <time>2018-02-20T08:09:45Z</time>
      </trkpt>
      <trkpt lat="47.12703" lon="5.61183">
        <ele>235</ele>
        <time>2018-02-20T08:10:01Z</time>
      </trkpt>
      <trkpt lat="47.1272" lon="5.61249">
        <ele>235</ele>
        <time>2018-02-20T08:10:35Z</time>
      </trkpt>
      <trkpt lat="47.12723" lon="5.61257">
        <ele>235</ele>
        <time>2018-02-20T08:10:39Z</time>
      </trkpt>
      <trkpt lat="47.12726" lon="5.61271">
        <ele>235</ele>
        <time>2018-02-20T08:10:46Z</time>
      </trkpt>
      <trkpt lat="47.12736" lon="5.61308">
        <ele>235</ele>
        <time>2018-02-20T08:11:04Z</time>
      </trkpt>
      <trkpt lat="47.12737" lon="5.61315">
        <ele>235</ele>
        <time>2018-02-20T08:11:07Z</time>
      </trkpt>
      <trkpt lat="47.12743" lon="5.61339">
        <ele>235</ele>
        <time>2018-02-20T08:11:19Z</time>
      </trkpt>
      <trkpt lat="47.12745" lon="5.61347">
        <ele>235</ele>
        <time>2018-02-20T08:11:23Z</time>
      </trkpt>
      <trkpt lat="47.12751" lon="5.61369">
        <ele>236</ele>
        <time>2018-02-20T08:11:34Z</time>
      </trkpt>
      <trkpt lat="47.12754" lon="5.61382">
        <ele>236</ele>
        <time>2018-02-20T08:11:40Z</time>
      </trkpt>
      <trkpt lat="47.12759" lon="5.61394">
        <ele>237</ele>
        <time>2018-02-20T08:11:48Z</time>
      </trkpt>
      <trkpt lat="47.12762" lon="5.61408">
        <ele>237</ele>
        <time>2018-02-20T08:11:54Z</time>
      </trkpt>
      <trkpt lat="47.12764" lon="5.6143">
        <ele>237</ele>
        <time>2018-02-20T08:12:05Z</time>
      </trkpt>
      <trkpt lat="47.12764" lon="5.61438">
        <ele>237</ele>
        <time>2018-02-20T08:12:09Z</time>
      </trkpt>
      <trkpt lat="47.12768" lon="5.61452">
        <ele>238</ele>
        <time>2018-02-20T08:12:19Z</time>
      </trkpt>
      <trkpt lat="47.1277" lon="5.61469">
        <ele>238</ele>
        <time>2018-02-20T08:12:27Z</time>
      </trkpt>
      <trkpt lat="47.12771" lon="5.61475">
        <ele>238</ele>
        <time>2018-02-20T08:12:30Z</time>
      </trkpt>
      <trkpt lat="47.12794" lon="5.61507">
        <ele>238</ele>
        <time>2018-02-20T08:12:51Z</time>
      </trkpt>
      <trkpt lat="47.12807" lon="5.61517">
        <ele>238</ele>
        <time>2018-02-20T08:13:01Z</time>
      </trkpt>
      <trkpt lat="47.12811" lon="5.61522">
        <ele>238</ele>
        <time>2018-02-20T08:13:04Z</time>
      </trkpt>
      <trkpt lat="47.12815" lon="5.61529">
        <ele>238</ele>
        <time>2018-02-20T08:13:08Z</time>
      </trkpt>
      <trkpt lat="47.1283" lon="5.61548">
        <ele>238</ele>
        <time>2018-02-20T08:13:21Z</time>
      </trkpt>
      <trkpt lat="47.12835" lon="5.6155">
        <ele>237</ele>
        <time>2018-02-20T08:13:24Z</time>
      </trkpt>
      <trkpt lat="47.12838" lon="5.61555">
        <ele>237</ele>
        <time>2018-02-20T08:13:27Z</time>
      </trkpt>
      <trkpt lat="47.12847" lon="5.61567">
        <ele>237</ele>
        <time>2018-02-20T08:13:35Z</time>
      </trkpt>
      <trkpt lat="47.12863" lon="5.61585">
        <ele>237</ele>
        <time>2018-02-20T08:13:49Z</time>
      </trkpt>
      <trkpt lat="47.12867" lon="5.61592">
        <ele>237</ele>
        <time>2018-02-20T08:13:54Z</time>
      </trkpt>
      <trkpt lat="47.12875" lon="5.61599">
        <ele>237</ele>
        <time>2018-02-20T08:14:00Z</time>
      </trkpt>
      <trkpt lat="47.12882" lon="5.61608">
        <ele>237</ele>
        <time>2018-02-20T08:14:06Z</time>
      </trkpt>
      <trkpt lat="47.12891" lon="5.61617">
        <ele>237</ele>
        <time>2018-02-20T08:14:13Z</time>
      </trkpt>
      <trkpt lat="47.12894" lon="5.61623">
        <ele>237</ele>
        <time>2018-02-20T08:14:16Z</time>
      </trkpt>
      <trkpt lat="47.12898" lon="5.61628">
        <ele>237</ele>
        <time>2018-02-20T08:14:19Z</time>
      </trkpt>
      <trkpt lat="47.12902" lon="5.6163">
        <ele>237</ele>
        <time>2018-02-20T08:14:22Z</time>
      </trkpt>
      <trkpt lat="47.12908" lon="5.61633">
        <ele>237</ele>
        <time>2018-02-20T08:14:26Z</time>
      </trkpt>
      <trkpt lat="47.12918" lon="5.61637">
        <ele>236</ele>
        <time>2018-02-20T08:14:33Z</time>
      </trkpt>
      <trkpt lat="47.12927" lon="5.61645">
        <ele>236</ele>
        <time>2018-02-20T08:14:40Z</time>
      </trkpt>
      <trkpt lat="47.12932" lon="5.61647">
        <ele>236</ele>
        <time>2018-02-20T08:14:44Z</time>
      </trkpt>
      <trkpt lat="47.12938" lon="5.61647">
        <ele>236</ele>
        <time>2018-02-20T08:14:48Z</time>
      </trkpt>
      <trkpt lat="47.12944" lon="5.61649">
        <ele>236</ele>
        <time>2018-02-20T08:14:52Z</time>
      </trkpt>
      <trkpt lat="47.12959" lon="5.6166">
        <ele>236</ele>
        <time>2018-02-20T08:15:04Z</time>
      </trkpt>
      <trkpt lat="47.13005" lon="5.61673">
        <ele>234</ele>
        <time>2018-02-20T08:15:34Z</time>
      </trkpt>
      <trkpt lat="47.13014" lon="5.61679">
        <ele>234</ele>
        <time>2018-02-20T08:15:41Z</time>
      </trkpt>
      <trkpt lat="47.13045" lon="5.61691">
        <ele>233</ele>
        <time>2018-02-20T08:16:00Z</time>
      </trkpt>
      <trkpt lat="47.13054" lon="5.617">
        <ele>232</ele>
        <time>2018-02-20T08:16:08Z</time>
      </trkpt>
      <trkpt lat="47.13068" lon="5.61704">
        <ele>232</ele>
        <time>2018-02-20T08:16:17Z</time>
      </trkpt>
      <trkpt lat="47.13087" lon="5.61715">
        <ele>227</ele>
        <time>2018-02-20T08:16:33Z</time>
      </trkpt>
      <trkpt lat="47.13097" lon="5.61718">
        <ele>227</ele>
        <time>2018-02-20T08:16:39Z</time>
      </trkpt>
      <trkpt lat="47.13101" lon="5.61721">
        <ele>227</ele>
        <time>2018-02-20T08:16:43Z</time>
      </trkpt>
      <trkpt lat="47.13105" lon="5.61726">
        <ele>227</ele>
        <time>2018-02-20T08:16:47Z</time>
      </trkpt>
      <trkpt lat="47.13149" lon="5.61763">
        <ele>223</ele>
        <time>2018-02-20T08:17:21Z</time>
      </trkpt>
      <trkpt lat="47.13154" lon="5.61769">
        <ele>223</ele>
        <time>2018-02-20T08:17:25Z</time>
      </trkpt>
      <trkpt lat="47.13157" lon="5.61775">
        <ele>223</ele>
        <time>2018-02-20T08:17:29Z</time>
      </trkpt>
      <trkpt lat="47.13163" lon="5.61795">
        <ele>222</ele>
        <time>2018-02-20T08:17:39Z</time>
      </trkpt>
      <trkpt lat="47.13163" lon="5.61803">
        <ele>222</ele>
        <time>2018-02-20T08:17:43Z</time>
      </trkpt>
      <trkpt lat="47.13164" lon="5.61811">
        <ele>221</ele>
        <time>2018-02-20T08:17:47Z</time>
      </trkpt>
      <trkpt lat="47.13164" lon="5.61818">
        <ele>221</ele>
        <time>2018-02-20T08:17:50Z</time>
      </trkpt>
      <trkpt lat="47.13166" lon="5.61832">
        <ele>218</ele>
        <time>2018-02-20T08:17:56Z</time>
      </trkpt>
      <trkpt lat="47.13168" lon="5.61839">
        <ele>218</ele>
        <time>2018-02-20T08:18:00Z</time>
      </trkpt>
      <trkpt lat="47.13171" lon="5.61845">
        <ele>218</ele>
        <time>2018-02-20T08:18:04Z</time>
      </trkpt>
      <trkpt lat="47.13172" lon="5.61875">
        <ele>218</ele>
        <time>2018-02-20T08:18:16Z</time>
      </trkpt>
      <trkpt lat="47.13171" lon="5.61882">
        <ele>218</ele>
        <time>2018-02-20T08:18:19Z</time>
      </trkpt>
      <trkpt lat="47.13172" lon="5.61889">
        <ele>218</ele>
        <time>2018-02-20T08:18:22Z</time>
      </trkpt>
      <trkpt lat="47.13175" lon="5.61903">
        <ele>219</ele>
        <time>2018-02-20T08:18:30Z</time>
      </trkpt>
      <trkpt lat="47.13181" lon="5.61925">
        <ele>219</ele>
        <time>2018-02-20T08:18:42Z</time>
      </trkpt>
      <trkpt lat="47.13186" lon="5.6197">
        <ele>220</ele>
        <time>2018-02-20T08:19:03Z</time>
      </trkpt>
      <trkpt lat="47.13185" lon="5.61987">
        <ele>221</ele>
        <time>2018-02-20T08:19:10Z</time>
      </trkpt>
      <trkpt lat="47.13185" lon="5.62011">
        <ele>223</ele>
        <time>2018-02-20T08:19:19Z</time>
      </trkpt>
      <trkpt lat="47.1319" lon="5.62041">
        <ele>223</ele>
        <time>2018-02-20T08:19:34Z</time>
      </trkpt>
      <trkpt lat="47.13192" lon="5.62048">
        <ele>223</ele>
        <time>2018-02-20T08:19:38Z</time>
      </trkpt>
      <trkpt lat="47.13195" lon="5.62063">
        <ele>223</ele>
        <time>2018-02-20T08:19:46Z</time>
      </trkpt>
      <trkpt lat="47.13198" lon="5.62069">
        <ele>223</ele>
        <time>2018-02-20T08:19:51Z</time>
      </trkpt>
      <trkpt lat="47.13199" lon="5.62078">
        <ele>223</ele>
        <time>2018-02-20T08:19:55Z</time>
      </trkpt>
      <trkpt lat="47.132" lon="5.62085">
        <ele>224</ele>
        <time>2018-02-20T08:19:58Z</time>
      </trkpt>
      <trkpt lat="47.13201" lon="5.62093">
        <ele>224</ele>
        <time>2018-02-20T08:20:02Z</time>
      </trkpt>
      <trkpt lat="47.13207" lon="5.62114">
        <ele>224</ele>
        <time>2018-02-20T08:20:14Z</time>
      </trkpt>
      <trkpt lat="47.13208" lon="5.62122">
        <ele>224</ele>
        <time>2018-02-20T08:20:17Z</time>
      </trkpt>
      <trkpt lat="47.13209" lon="5.62129">
        <ele>224</ele>
        <time>2018-02-20T08:20:20Z</time>
      </trkpt>
      <trkpt lat="47.13211" lon="5.62135">
        <ele>224</ele>
        <time>2018-02-20T08:20:23Z</time>
      </trkpt>
      <trkpt lat="47.13215" lon="5.62146">
        <ele>224</ele>
        <time>2018-02-20T08:20:28Z</time>
      </trkpt>
      <trkpt lat="47.13223" lon="5.62154">
        <ele>224</ele>
        <time>2018-02-20T08:20:35Z</time>
      </trkpt>
      <trkpt lat="47.13231" lon="5.62162">
        <ele>224</ele>
        <time>2018-02-20T08:20:41Z</time>
      </trkpt>
      <trkpt lat="47.1324" lon="5.62165">
        <ele>223</ele>
        <time>2018-02-20T08:20:46Z</time>
      </trkpt>
      <trkpt lat="47.13244" lon="5.62167">
        <ele>224</ele>
        <time>2018-02-20T08:20:49Z</time>
      </trkpt>
      <trkpt lat="47.13248" lon="5.62172">
        <ele>224</ele>
        <time>2018-02-20T08:20:53Z</time>
      </trkpt>
      <trkpt lat="47.13247" lon="5.6218">
        <ele>225</ele>
        <time>2018-02-20T08:20:58Z</time>
      </trkpt>
      <trkpt lat="47.13243" lon="5.62193">
        <ele>226</ele>
        <time>2018-02-20T08:21:06Z</time>
      </trkpt>
      <trkpt lat="47.13241" lon="5.622">
        <ele>227</ele>
        <time>2018-02-20T08:21:10Z</time>
      </trkpt>
      <trkpt lat="47.13238" lon="5.62206">
        <ele>227</ele>
        <time>2018-02-20T08:21:14Z</time>
      </trkpt>
      <trkpt lat="47.13233" lon="5.6221">
        <ele>227</ele>
        <time>2018-02-20T08:21:18Z</time>
      </trkpt>
      <trkpt lat="47.1322" lon="5.62236">
        <ele>228</ele>
        <time>2018-02-20T08:21:32Z</time>
      </trkpt>
      <trkpt lat="47.13216" lon="5.62243">
        <ele>228</ele>
        <time>2018-02-20T08:21:36Z</time>
      </trkpt>
      <trkpt lat="47.132" lon="5.62283">
        <ele>231</ele>
        <time>2018-02-20T08:21:57Z</time>
      </trkpt>
      <trkpt lat="47.13197" lon="5.62288">
        <ele>231</ele>
        <time>2018-02-20T08:22:01Z</time>
      </trkpt>
      <trkpt lat="47.13192" lon="5.62304">
        <ele>231</ele>
        <time>2018-02-20T08:22:10Z</time>
      </trkpt>
      <trkpt lat="47.13192" lon="5.62312">
        <ele>232</ele>
        <time>2018-02-20T08:22:13Z</time>
      </trkpt>
      <trkpt lat="47.13192" lon="5.6232">
        <ele>232</ele>
        <time>2018-02-20T08:22:16Z</time>
      </trkpt>
      <trkpt lat="47.13191" lon="5.62327">
        <ele>232</ele>
        <time>2018-02-20T08:22:19Z</time>
      </trkpt>
      <trkpt lat="47.13191" lon="5.62337">
        <ele>234</ele>
        <time>2018-02-20T08:22:22Z</time>
      </trkpt>
      <trkpt lat="47.13197" lon="5.62366">
        <ele>235</ele>
        <time>2018-02-20T08:22:34Z</time>
      </trkpt>
      <trkpt lat="47.132" lon="5.62373">
        <ele>235</ele>
        <time>2018-02-20T08:22:38Z</time>
      </trkpt>
      <trkpt lat="47.132" lon="5.62381">
        <ele>235</ele>
        <time>2018-02-20T08:22:42Z</time>
      </trkpt>
      <trkpt lat="47.13209" lon="5.62408">
        <ele>236</ele>
        <time>2018-02-20T08:22:55Z</time>
      </trkpt>
      <trkpt lat="47.13212" lon="5.62426">
        <ele>237</ele>
        <time>2018-02-20T08:23:02Z</time>
      </trkpt>
      <trkpt lat="47.13214" lon="5.62432">
        <ele>238</ele>
        <time>2018-02-20T08:23:07Z</time>
      </trkpt>
      <trkpt lat="47.1322" lon="5.62454">
        <ele>238</ele>
        <time>2018-02-20T08:23:18Z</time>
      </trkpt>
      <trkpt lat="47.1322" lon="5.62461">
        <ele>238</ele>
        <time>2018-02-20T08:23:21Z</time>
      </trkpt>
      <trkpt lat="47.13224" lon="5.62476">
        <ele>238</ele>
        <time>2018-02-20T08:23:29Z</time>
      </trkpt>
      <trkpt lat="47.13225" lon="5.62483">
        <ele>238</ele>
        <time>2018-02-20T08:23:31Z</time>
      </trkpt>
      <trkpt lat="47.13224" lon="5.62491">
        <ele>238</ele>
        <time>2018-02-20T08:23:34Z</time>
      </trkpt>
      <trkpt lat="47.13232" lon="5.62528">
        <ele>239</ele>
        <time>2018-02-20T08:23:50Z</time>
      </trkpt>
      <trkpt lat="47.13238" lon="5.62543">
        <ele>238</ele>
        <time>2018-02-20T08:23:58Z</time>
      </trkpt>
      <trkpt lat="47.13241" lon="5.62555">
        <ele>238</ele>
        <time>2018-02-20T08:24:03Z</time>
      </trkpt>
      <trkpt lat="47.13246" lon="5.62564">
        <ele>238</ele>
        <time>2018-02-20T08:24:10Z</time>
      </trkpt>
      <trkpt lat="47.13248" lon="5.62571">
        <ele>238</ele>
        <time>2018-02-20T08:24:13Z</time>
      </trkpt>
      <trkpt lat="47.13251" lon="5.62576">
        <ele>238</ele>
        <time>2018-02-20T08:24:17Z</time>
      </trkpt>
      <trkpt lat="47.1325" lon="5.62584">
        <ele>237</ele>
        <time>2018-02-20T08:24:21Z</time>
      </trkpt>
      <trkpt lat="47.1325" lon="5.62591">
        <ele>237</ele>
        <time>2018-02-20T08:24:24Z</time>
      </trkpt>
      <trkpt lat="47.13253" lon="5.62607">
        <ele>238</ele>
        <time>2018-02-20T08:24:31Z</time>
      </trkpt>
      <trkpt lat="47.13255" lon="5.62615">
        <ele>238</ele>
        <time>2018-02-20T08:24:34Z</time>
      </trkpt>
      <trkpt lat="47.13257" lon="5.62632">
        <ele>238</ele>
        <time>2018-02-20T08:24:42Z</time>
      </trkpt>
      <trkpt lat="47.1326" lon="5.62639">
        <ele>238</ele>
        <time>2018-02-20T08:24:46Z</time>
      </trkpt>
      <trkpt lat="47.13261" lon="5.62647">
        <ele>238</ele>
        <time>2018-02-20T08:24:50Z</time>
      </trkpt>
      <trkpt lat="47.13264" lon="5.6267">
        <ele>237</ele>
        <time>2018-02-20T08:25:00Z</time>
      </trkpt>
      <trkpt lat="47.13264" lon="5.62677">
        <ele>237</ele>
        <time>2018-02-20T08:25:03Z</time>
      </trkpt>
      <trkpt lat="47.13266" lon="5.62686">
        <ele>237</ele>
        <time>2018-02-20T08:25:07Z</time>
      </trkpt>
      <trkpt lat="47.13267" lon="5.62693">
        <ele>237</ele>
        <time>2018-02-20T08:25:10Z</time>
      </trkpt>
      <trkpt lat="47.13265" lon="5.62701">
        <ele>237</ele>
        <time>2018-02-20T08:25:13Z</time>
      </trkpt>
      <trkpt lat="47.13265" lon="5.62708">
        <ele>237</ele>
        <time>2018-02-20T08:25:16Z</time>
      </trkpt>
      <trkpt lat="47.1327" lon="5.62758">
        <ele>237</ele>
        <time>2018-02-20T08:25:43Z</time>
      </trkpt>
      <trkpt lat="47.13275" lon="5.62754">
        <ele>237</ele>
        <time>2018-02-20T08:25:54Z</time>
      </trkpt>
      <trkpt lat="47.13279" lon="5.6276">
        <ele>237</ele>
        <time>2018-02-20T08:26:24Z</time>
      </trkpt>
      <trkpt lat="47.13272" lon="5.62764">
        <ele>237</ele>
        <time>2018-02-20T08:29:50Z</time>
      </trkpt>
      <trkpt lat="47.1326" lon="5.6277">
        <ele>237</ele>
        <time>2018-02-20T08:29:59Z</time>
      </trkpt>
      <trkpt lat="47.13255" lon="5.62773">
        <ele>237</ele>
        <time>2018-02-20T08:30:03Z</time>
      </trkpt>
      <trkpt lat="47.13246" lon="5.62778">
        <ele>238</ele>
        <time>2018-02-20T08:30:10Z</time>
      </trkpt>
      <trkpt lat="47.13241" lon="5.6278">
        <ele>238</ele>
        <time>2018-02-20T08:30:13Z</time>
      </trkpt>
      <trkpt lat="47.13235" lon="5.6278">
        <ele>239</ele>
        <time>2018-02-20T08:30:17Z</time>
      </trkpt>
      <trkpt lat="47.13225" lon="5.62781">
        <ele>239</ele>
        <time>2018-02-20T08:30:23Z</time>
      </trkpt>
      <trkpt lat="47.13174" lon="5.62796">
        <ele>240</ele>
        <time>2018-02-20T08:30:56Z</time>
      </trkpt>
      <trkpt lat="47.13169" lon="5.62797">
        <ele>240</ele>
        <time>2018-02-20T08:30:59Z</time>
      </trkpt>
      <trkpt lat="47.13164" lon="5.62797">
        <ele>242</ele>
        <time>2018-02-20T08:31:02Z</time>
      </trkpt>
      <trkpt lat="47.13146" lon="5.62806">
        <ele>242</ele>
        <time>2018-02-20T08:31:14Z</time>
      </trkpt>
      <trkpt lat="47.1311" lon="5.62813">
        <ele>242</ele>
        <time>2018-02-20T08:31:38Z</time>
      </trkpt>
      <trkpt lat="47.13075" lon="5.62826">
        <ele>243</ele>
        <time>2018-02-20T08:32:05Z</time>
      </trkpt>
      <trkpt lat="47.13069" lon="5.62827">
        <ele>243</ele>
        <time>2018-02-20T08:32:09Z</time>
      </trkpt>
      <trkpt lat="47.1306" lon="5.62831">
        <ele>243</ele>
        <time>2018-02-20T08:32:15Z</time>
      </trkpt>
      <trkpt lat="47.1305" lon="5.62831">
        <ele>244</ele>
        <time>2018-02-20T08:32:20Z</time>
      </trkpt>
      <trkpt lat="47.13005" lon="5.62846">
        <ele>246</ele>
        <time>2018-02-20T08:32:51Z</time>
      </trkpt>
      <trkpt lat="47.12954" lon="5.62851">
        <ele>248</ele>
        <time>2018-02-20T08:33:24Z</time>
      </trkpt>
      <trkpt lat="47.12944" lon="5.62856">
        <ele>249</ele>
        <time>2018-02-20T08:33:32Z</time>
      </trkpt>
      <trkpt lat="47.12934" lon="5.6286">
        <ele>249</ele>
        <time>2018-02-20T08:33:39Z</time>
      </trkpt>
      <trkpt lat="47.12929" lon="5.62864">
        <ele>249</ele>
        <time>2018-02-20T08:33:43Z</time>
      </trkpt>
      <trkpt lat="47.12918" lon="5.62867">
        <ele>249</ele>
        <time>2018-02-20T08:33:50Z</time>
      </trkpt>
      <trkpt lat="47.12913" lon="5.6287">
        <ele>250</ele>
        <time>2018-02-20T08:33:54Z</time>
      </trkpt>
      <trkpt lat="47.12904" lon="5.62877">
        <ele>250</ele>
        <time>2018-02-20T08:34:01Z</time>
      </trkpt>
      <trkpt lat="47.12856" lon="5.62888">
        <ele>250</ele>
        <time>2018-02-20T08:34:33Z</time>
      </trkpt>
      <trkpt lat="47.12842" lon="5.62891">
        <ele>250</ele>
        <time>2018-02-20T08:34:43Z</time>
      </trkpt>
      <trkpt lat="47.12832" lon="5.62898">
        <ele>251</ele>
        <time>2018-02-20T08:34:51Z</time>
      </trkpt>
      <trkpt lat="47.12797" lon="5.62904">
        <ele>251</ele>
        <time>2018-02-20T08:35:12Z</time>
      </trkpt>
      <trkpt lat="47.12792" lon="5.62907">
        <ele>251</ele>
        <time>2018-02-20T08:35:16Z</time>
      </trkpt>
      <trkpt lat="47.12763" lon="5.62916">
        <ele>252</ele>
        <time>2018-02-20T08:35:36Z</time>
      </trkpt>
      <trkpt lat="47.12758" lon="5.62921">
        <ele>252</ele>
        <time>2018-02-20T08:35:40Z</time>
      </trkpt>
      <trkpt lat="47.12751" lon="5.62925">
        <ele>252</ele>
        <time>2018-02-20T08:35:45Z</time>
      </trkpt>
      <trkpt lat="47.12741" lon="5.62925">
        <ele>252</ele>
        <time>2018-02-20T08:35:52Z</time>
      </trkpt>
      <trkpt lat="47.1272" lon="5.62933">
        <ele>252</ele>
        <time>2018-02-20T08:36:07Z</time>
      </trkpt>
      <trkpt lat="47.12715" lon="5.62935">
        <ele>252</ele>
        <time>2018-02-20T08:36:11Z</time>
      </trkpt>
      <trkpt lat="47.127" lon="5.62943">
        <ele>252</ele>
        <time>2018-02-20T08:36:22Z</time>
      </trkpt>
      <trkpt lat="47.12652" lon="5.62953">
        <ele>252</ele>
        <time>2018-02-20T08:36:54Z</time>
      </trkpt>
      <trkpt lat="47.12635" lon="5.62961">
        <ele>252</ele>
        <time>2018-02-20T08:37:06Z</time>
      </trkpt>
      <trkpt lat="47.12619" lon="5.62961">
        <ele>252</ele>
        <time>2018-02-20T08:37:16Z</time>
      </trkpt>
      <trkpt lat="47.12573" lon="5.62974">
        <ele>251</ele>
        <time>2018-02-20T08:37:47Z</time>
      </trkpt>
      <trkpt lat="47.12523" lon="5.62995">
        <ele>250</ele>
        <time>2018-02-20T08:38:19Z</time>
      </trkpt>
      <trkpt lat="47.12496" lon="5.62995">
        <ele>249</ele>
        <time>2018-02-20T08:38:33Z</time>
      </trkpt>
      <trkpt lat="47.12487" lon="5.62999">
        <ele>249</ele>
        <time>2018-02-20T08:38:41Z</time>
      </trkpt>
      <trkpt lat="47.12481" lon="5.62999">
        <ele>250</ele>
        <time>2018-02-20T08:38:45Z</time>
      </trkpt>
      <trkpt lat="47.12457" lon="5.6301">
        <ele>251</ele>
        <time>2018-02-20T08:39:03Z</time>
      </trkpt>
      <trkpt lat="47.12446" lon="5.63011">
        <ele>251</ele>
        <time>2018-02-20T08:39:11Z</time>
      </trkpt>
      <trkpt lat="47.12392" lon="5.63029">
        <ele>253</ele>
        <time>2018-02-20T08:39:44Z</time>
      </trkpt>
      <trkpt lat="47.12378" lon="5.63035">
        <ele>254</ele>
        <time>2018-02-20T08:39:53Z</time>
      </trkpt>
      <trkpt lat="47.12357" lon="5.63038">
        <ele>254</ele>
        <time>2018-02-20T08:40:06Z</time>
      </trkpt>
      <trkpt lat="47.12353" lon="5.63037">
        <ele>254</ele>
        <time>2018-02-20T08:40:11Z</time>
      </trkpt>
      <trkpt lat="47.12348" lon="5.63038">
        <ele>254</ele>
        <time>2018-02-20T08:40:15Z</time>
      </trkpt>
      <trkpt lat="47.12331" lon="5.63045">
        <ele>256</ele>
        <time>2018-02-20T08:40:26Z</time>
      </trkpt>
      <trkpt lat="47.12325" lon="5.63046">
        <ele>256</ele>
        <time>2018-02-20T08:40:29Z</time>
      </trkpt>
      <trkpt lat="47.1231" lon="5.6305">
        <ele>256</ele>
        <time>2018-02-20T08:40:40Z</time>
      </trkpt>
      <trkpt lat="47.12306" lon="5.63052">
        <ele>256</ele>
        <time>2018-02-20T08:40:43Z</time>
      </trkpt>
      <trkpt lat="47.12301" lon="5.63054">
        <ele>256</ele>
        <time>2018-02-20T08:40:46Z</time>
      </trkpt>
      <trkpt lat="47.1228" lon="5.63058">
        <ele>256</ele>
        <time>2018-02-20T08:41:01Z</time>
      </trkpt>
      <trkpt lat="47.12266" lon="5.63065">
        <ele>256</ele>
        <time>2018-02-20T08:41:11Z</time>
      </trkpt>
      <trkpt lat="47.1225" lon="5.63069">
        <ele>256</ele>
        <time>2018-02-20T08:41:22Z</time>
      </trkpt>
      <trkpt lat="47.12206" lon="5.63083">
        <ele>256</ele>
        <time>2018-02-20T08:41:54Z</time>
      </trkpt>
      <trkpt lat="47.12191" lon="5.63087">
        <ele>255</ele>
        <time>2018-02-20T08:42:07Z</time>
      </trkpt>
      <trkpt lat="47.12186" lon="5.63091">
        <ele>254</ele>
        <time>2018-02-20T08:44:15Z</time>
      </trkpt>
      <trkpt lat="47.1218" lon="5.63092">
        <ele>254</ele>
        <time>2018-02-20T08:44:19Z</time>
      </trkpt>
      <trkpt lat="47.12173" lon="5.63095">
        <ele>254</ele>
        <time>2018-02-20T08:44:52Z</time>
      </trkpt>
      <trkpt lat="47.12159" lon="5.63102">
        <ele>255</ele>
        <time>2018-02-20T08:45:01Z</time>
      </trkpt>
      <trkpt lat="47.12145" lon="5.63109">
        <ele>256</ele>
        <time>2018-02-20T08:45:10Z</time>
      </trkpt>
      <trkpt lat="47.12121" lon="5.63114">
        <ele>256</ele>
        <time>2018-02-20T08:45:28Z</time>
      </trkpt>
      <trkpt lat="47.12116" lon="5.63119">
        <ele>256</ele>
        <time>2018-02-20T08:45:32Z</time>
      </trkpt>
      <trkpt lat="47.12106" lon="5.63116">
        <ele>256</ele>
        <time>2018-02-20T08:45:38Z</time>
      </trkpt>
      <trkpt lat="47.12094" lon="5.63118">
        <ele>257</ele>
        <time>2018-02-20T08:45:45Z</time>
      </trkpt>
      <trkpt lat="47.12089" lon="5.6312">
        <ele>257</ele>
        <time>2018-02-20T08:45:49Z</time>
      </trkpt>
      <trkpt lat="47.12072" lon="5.63126">
        <ele>259</ele>
        <time>2018-02-20T08:45:59Z</time>
      </trkpt>
      <trkpt lat="47.12067" lon="5.63126">
        <ele>259</ele>
        <time>2018-02-20T08:46:02Z</time>
      </trkpt>
      <trkpt lat="47.12038" lon="5.63134">
        <ele>259</ele>
        <time>2018-02-20T08:46:24Z</time>
      </trkpt>
      <trkpt lat="47.12033" lon="5.63138">
        <ele>260</ele>
        <time>2018-02-20T08:46:27Z</time>
      </trkpt>
      <trkpt lat="47.12021" lon="5.63137">
        <ele>260</ele>
        <time>2018-02-20T08:46:34Z</time>
      </trkpt>
      <trkpt lat="47.12002" lon="5.63146">
        <ele>260</ele>
        <time>2018-02-20T08:46:47Z</time>
      </trkpt>
      <trkpt lat="47.11986" lon="5.63152">
        <ele>261</ele>
        <time>2018-02-20T08:46:57Z</time>
      </trkpt>
      <trkpt lat="47.11967" lon="5.63159">
        <ele>261</ele>
        <time>2018-02-20T08:47:10Z</time>
      </trkpt>
      <trkpt lat="47.11951" lon="5.63163">
        <ele>261</ele>
        <time>2018-02-20T08:47:22Z</time>
      </trkpt>
      <trkpt lat="47.11902" lon="5.63176">
        <ele>261</ele>
        <time>2018-02-20T08:47:55Z</time>
      </trkpt>
      <trkpt lat="47.11895" lon="5.63179">
        <ele>261</ele>
        <time>2018-02-20T08:48:00Z</time>
      </trkpt>
      <trkpt lat="47.11853" lon="5.63188">
        <ele>261</ele>
        <time>2018-02-20T08:48:28Z</time>
      </trkpt>
      <trkpt lat="47.11847" lon="5.63191">
        <ele>261</ele>
        <time>2018-02-20T08:48:32Z</time>
      </trkpt>
      <trkpt lat="47.11843" lon="5.63192">
        <ele>261</ele>
        <time>2018-02-20T08:48:35Z</time>
      </trkpt>
      <trkpt lat="47.11838" lon="5.63193">
        <ele>261</ele>
        <time>2018-02-20T08:48:38Z</time>
      </trkpt>
      <trkpt lat="47.11816" lon="5.63201">
        <ele>261</ele>
        <time>2018-02-20T08:48:53Z</time>
      </trkpt>
      <trkpt lat="47.11811" lon="5.63201">
        <ele>261</ele>
        <time>2018-02-20T08:48:56Z</time>
      </trkpt>
      <trkpt lat="47.11808" lon="5.63207">
        <ele>261</ele>
        <time>2018-02-20T08:49:02Z</time>
      </trkpt>
      <trkpt lat="47.11804" lon="5.6321">
        <ele>261</ele>
        <time>2018-02-20T08:49:06Z</time>
      </trkpt>
      <trkpt lat="47.11789" lon="5.63218">
        <ele>261</ele>
        <time>2018-02-20T08:49:18Z</time>
      </trkpt>
      <trkpt lat="47.11784" lon="5.6322">
        <ele>261</ele>
        <time>2018-02-20T08:49:22Z</time>
      </trkpt>
      <trkpt lat="47.11768" lon="5.63225">
        <ele>261</ele>
        <time>2018-02-20T08:49:33Z</time>
      </trkpt>
      <trkpt lat="47.11746" lon="5.63228">
        <ele>262</ele>
        <time>2018-02-20T08:49:48Z</time>
      </trkpt>
      <trkpt lat="47.11741" lon="5.63233">
        <ele>262</ele>
        <time>2018-02-20T08:49:53Z</time>
      </trkpt>
      <trkpt lat="47.11725" lon="5.63233">
        <ele>262</ele>
        <time>2018-02-20T08:50:03Z</time>
      </trkpt>
      <trkpt lat="47.117" lon="5.63242">
        <ele>262</ele>
        <time>2018-02-20T08:50:22Z</time>
      </trkpt>
      <trkpt lat="47.11695" lon="5.63241">
        <ele>262</ele>
        <time>2018-02-20T08:50:25Z</time>
      </trkpt>
      <trkpt lat="47.1169" lon="5.63245">
        <ele>262</ele>
        <time>2018-02-20T08:50:29Z</time>
      </trkpt>
      <trkpt lat="47.11649" lon="5.63257">
        <ele>262</ele>
        <time>2018-02-20T08:50:57Z</time>
      </trkpt>
      <trkpt lat="47.11643" lon="5.63257">
        <ele>262</ele>
        <time>2018-02-20T08:51:01Z</time>
      </trkpt>
      <trkpt lat="47.11638" lon="5.63258">
        <ele>262</ele>
        <time>2018-02-20T08:51:04Z</time>
      </trkpt>
      <trkpt lat="47.11634" lon="5.63258">
        <ele>262</ele>
        <time>2018-02-20T08:51:07Z</time>
      </trkpt>
      <trkpt lat="47.11588" lon="5.63269">
        <ele>261</ele>
        <time>2018-02-20T08:51:39Z</time>
      </trkpt>
      <trkpt lat="47.11556" lon="5.63276">
        <ele>261</ele>
        <time>2018-02-20T08:52:00Z</time>
      </trkpt>
      <trkpt lat="47.11531" lon="5.63286">
        <ele>261</ele>
        <time>2018-02-20T08:52:17Z</time>
      </trkpt>
      <trkpt lat="47.11526" lon="5.63287">
        <ele>261</ele>
        <time>2018-02-20T08:52:21Z</time>
      </trkpt>
      <trkpt lat="47.1152" lon="5.63287">
        <ele>261</ele>
        <time>2018-02-20T08:52:24Z</time>
      </trkpt>
      <trkpt lat="47.11503" lon="5.63292">
        <ele>261</ele>
        <time>2018-02-20T08:52:34Z</time>
      </trkpt>
      <trkpt lat="47.11487" lon="5.63297">
        <ele>262</ele>
        <time>2018-02-20T08:52:45Z</time>
      </trkpt>
      <trkpt lat="47.11483" lon="5.63303">
        <ele>262</ele>
        <time>2018-02-20T08:52:49Z</time>
      </trkpt>
      <trkpt lat="47.11464" lon="5.63308">
        <ele>262</ele>
        <time>2018-02-20T08:53:01Z</time>
      </trkpt>
      <trkpt lat="47.11453" lon="5.63308">
        <ele>262</ele>
        <time>2018-02-20T08:53:09Z</time>
      </trkpt>
      <trkpt lat="47.11409" lon="5.63325">
        <ele>261</ele>
        <time>2018-02-20T08:53:42Z</time>
      </trkpt>
      <trkpt lat="47.11368" lon="5.63339">
        <ele>261</ele>
        <time>2018-02-20T08:54:07Z</time>
      </trkpt>
      <trkpt lat="47.11357" lon="5.6334">
        <ele>261</ele>
        <time>2018-02-20T08:54:15Z</time>
      </trkpt>
      <trkpt lat="47.11348" lon="5.63344">
        <ele>261</ele>
        <time>2018-02-20T08:54:21Z</time>
      </trkpt>
      <trkpt lat="47.11337" lon="5.63345">
        <ele>260</ele>
        <time>2018-02-20T08:54:27Z</time>
      </trkpt>
      <trkpt lat="47.1133" lon="5.63347">
        <ele>260</ele>
        <time>2018-02-20T08:54:33Z</time>
      </trkpt>
      <trkpt lat="47.11326" lon="5.63352">
        <ele>261</ele>
        <time>2018-02-20T08:54:36Z</time>
      </trkpt>
      <trkpt lat="47.11277" lon="5.63365">
        <ele>261</ele>
        <time>2018-02-20T08:55:10Z</time>
      </trkpt>
      <trkpt lat="47.11257" lon="5.63373">
        <ele>261</ele>
        <time>2018-02-20T08:55:25Z</time>
      </trkpt>
      <trkpt lat="47.11252" lon="5.63376">
        <ele>261</ele>
        <time>2018-02-20T08:55:28Z</time>
      </trkpt>
      <trkpt lat="47.11247" lon="5.63378">
        <ele>261</ele>
        <time>2018-02-20T08:55:32Z</time>
      </trkpt>
      <trkpt lat="47.11242" lon="5.63379">
        <ele>261</ele>
        <time>2018-02-20T08:55:35Z</time>
      </trkpt>
      <trkpt lat="47.11238" lon="5.63381">
        <ele>261</ele>
        <time>2018-02-20T08:55:38Z</time>
      </trkpt>
      <trkpt lat="47.11232" lon="5.63383">
        <ele>261</ele>
        <time>2018-02-20T08:55:42Z</time>
      </trkpt>
      <trkpt lat="47.11228" lon="5.63387">
        <ele>261</ele>
        <time>2018-02-20T08:55:45Z</time>
      </trkpt>
      <trkpt lat="47.11222" lon="5.63389">
        <ele>261</ele>
        <time>2018-02-20T08:55:49Z</time>
      </trkpt>
      <trkpt lat="47.11217" lon="5.6339">
        <ele>260</ele>
        <time>2018-02-20T08:55:52Z</time>
      </trkpt>
      <trkpt lat="47.11206" lon="5.6339">
        <ele>260</ele>
        <time>2018-02-20T08:55:58Z</time>
      </trkpt>
      <trkpt lat="47.11202" lon="5.63392">
        <ele>260</ele>
        <time>2018-02-20T08:56:01Z</time>
      </trkpt>
      <trkpt lat="47.11192" lon="5.63392">
        <ele>260</ele>
        <time>2018-02-20T08:56:08Z</time>
      </trkpt>
      <trkpt lat="47.11188" lon="5.63394">
        <ele>260</ele>
        <time>2018-02-20T08:56:12Z</time>
      </trkpt>
      <trkpt lat="47.11183" lon="5.63395">
        <ele>260</ele>
        <time>2018-02-20T08:56:15Z</time>
      </trkpt>
      <trkpt lat="47.1116" lon="5.63402">
        <ele>259</ele>
        <time>2018-02-20T08:56:31Z</time>
      </trkpt>
      <trkpt lat="47.11136" lon="5.6341">
        <ele>259</ele>
        <time>2018-02-20T08:56:47Z</time>
      </trkpt>
      <trkpt lat="47.1112" lon="5.63408">
        <ele>259</ele>
        <time>2018-02-20T08:56:56Z</time>
      </trkpt>
      <trkpt lat="47.11107" lon="5.63412">
        <ele>259</ele>
        <time>2018-02-20T08:57:05Z</time>
      </trkpt>
      <trkpt lat="47.11102" lon="5.63416">
        <ele>259</ele>
        <time>2018-02-20T08:57:09Z</time>
      </trkpt>
      <trkpt lat="47.11093" lon="5.6342">
        <ele>258</ele>
        <time>2018-02-20T08:57:17Z</time>
      </trkpt>
      <trkpt lat="47.11068" lon="5.63427">
        <ele>258</ele>
        <time>2018-02-20T08:57:34Z</time>
      </trkpt>
      <trkpt lat="47.11058" lon="5.63431">
        <ele>259</ele>
        <time>2018-02-20T08:57:40Z</time>
      </trkpt>
      <trkpt lat="47.11048" lon="5.63434">
        <ele>259</ele>
        <time>2018-02-20T08:57:46Z</time>
      </trkpt>
      <trkpt lat="47.11038" lon="5.63439">
        <ele>259</ele>
        <time>2018-02-20T08:57:53Z</time>
      </trkpt>
      <trkpt lat="47.11028" lon="5.6344">
        <ele>259</ele>
        <time>2018-02-20T08:58:00Z</time>
      </trkpt>
      <trkpt lat="47.11022" lon="5.63439">
        <ele>259</ele>
        <time>2018-02-20T08:58:03Z</time>
      </trkpt>
      <trkpt lat="47.10994" lon="5.63451">
        <ele>259</ele>
        <time>2018-02-20T08:58:21Z</time>
      </trkpt>
      <trkpt lat="47.10984" lon="5.63452">
        <ele>259</ele>
        <time>2018-02-20T08:58:26Z</time>
      </trkpt>
      <trkpt lat="47.10964" lon="5.63458">
        <ele>259</ele>
        <time>2018-02-20T08:58:40Z</time>
      </trkpt>
      <trkpt lat="47.10956" lon="5.63467">
        <ele>260</ele>
        <time>2018-02-20T08:58:49Z</time>
      </trkpt>
      <trkpt lat="47.1093" lon="5.63471">
        <ele>260</ele>
        <time>2018-02-20T08:59:05Z</time>
      </trkpt>
      <trkpt lat="47.10883" lon="5.63484">
        <ele>261</ele>
        <time>2018-02-20T08:59:36Z</time>
      </trkpt>
      <trkpt lat="47.10873" lon="5.63484">
        <ele>261</ele>
        <time>2018-02-20T08:59:43Z</time>
      </trkpt>
      <trkpt lat="47.10867" lon="5.63486">
        <ele>261</ele>
        <time>2018-02-20T08:59:46Z</time>
      </trkpt>
      <trkpt lat="47.10852" lon="5.63491">
        <ele>262</ele>
        <time>2018-02-20T08:59:56Z</time>
      </trkpt>
      <trkpt lat="47.10845" lon="5.63493">
        <ele>262</ele>
        <time>2018-02-20T09:00:01Z</time>
      </trkpt>
      <trkpt lat="47.10837" lon="5.63497">
        <ele>262</ele>
        <time>2018-02-20T09:00:06Z</time>
      </trkpt>
      <trkpt lat="47.10821" lon="5.63499">
        <ele>262</ele>
        <time>2018-02-20T09:00:18Z</time>
      </trkpt>
      <trkpt lat="47.1081" lon="5.63505">
        <ele>262</ele>
        <time>2018-02-20T09:00:26Z</time>
      </trkpt>
      <trkpt lat="47.10767" lon="5.63518">
        <ele>262</ele>
        <time>2018-02-20T09:00:55Z</time>
      </trkpt>
      <trkpt lat="47.10757" lon="5.63525">
        <ele>262</ele>
        <time>2018-02-20T09:01:02Z</time>
      </trkpt>
      <trkpt lat="47.10747" lon="5.63529">
        <ele>262</ele>
        <time>2018-02-20T09:01:10Z</time>
      </trkpt>
      <trkpt lat="47.10736" lon="5.63531">
        <ele>262</ele>
        <time>2018-02-20T09:01:18Z</time>
      </trkpt>
      <trkpt lat="47.10726" lon="5.63536">
        <ele>262</ele>
        <time>2018-02-20T09:01:24Z</time>
      </trkpt>
      <trkpt lat="47.10721" lon="5.63536">
        <ele>262</ele>
        <time>2018-02-20T09:01:27Z</time>
      </trkpt>
      <trkpt lat="47.10711" lon="5.63538">
        <ele>262</ele>
        <time>2018-02-20T09:01:36Z</time>
      </trkpt>
      <trkpt lat="47.10696" lon="5.63545">
        <ele>262</ele>
        <time>2018-02-20T09:01:47Z</time>
      </trkpt>
      <trkpt lat="47.10685" lon="5.63547">
        <ele>262</ele>
        <time>2018-02-20T09:01:54Z</time>
      </trkpt>
      <trkpt lat="47.10671" lon="5.63551">
        <ele>262</ele>
        <time>2018-02-20T09:02:03Z</time>
      </trkpt>
      <trkpt lat="47.1066" lon="5.63552">
        <ele>261</ele>
        <time>2018-02-20T09:02:10Z</time>
      </trkpt>
      <trkpt lat="47.10655" lon="5.63555">
        <ele>261</ele>
        <time>2018-02-20T09:02:13Z</time>
      </trkpt>
      <trkpt lat="47.10639" lon="5.63557">
        <ele>261</ele>
        <time>2018-02-20T09:02:22Z</time>
      </trkpt>
      <trkpt lat="47.10633" lon="5.63558">
        <ele>261</ele>
        <time>2018-02-20T09:02:26Z</time>
      </trkpt>
      <trkpt lat="47.10628" lon="5.6356">
        <ele>261</ele>
        <time>2018-02-20T09:02:30Z</time>
      </trkpt>
      <trkpt lat="47.10621" lon="5.63564">
        <ele>261</ele>
        <time>2018-02-20T09:02:35Z</time>
      </trkpt>
      <trkpt lat="47.1061" lon="5.63565">
        <ele>261</ele>
        <time>2018-02-20T09:02:43Z</time>
      </trkpt>
      <trkpt lat="47.10604" lon="5.63569">
        <ele>261</ele>
        <time>2018-02-20T09:02:47Z</time>
      </trkpt>
      <trkpt lat="47.1059" lon="5.63574">
        <ele>260</ele>
        <time>2018-02-20T09:02:58Z</time>
      </trkpt>
      <trkpt lat="47.1055" lon="5.63585">
        <ele>261</ele>
        <time>2018-02-20T09:03:25Z</time>
      </trkpt>
      <trkpt lat="47.10525" lon="5.63594">
        <ele>261</ele>
        <time>2018-02-20T09:03:42Z</time>
      </trkpt>
      <trkpt lat="47.1052" lon="5.63593">
        <ele>261</ele>
        <time>2018-02-20T09:03:46Z</time>
      </trkpt>
      <trkpt lat="47.10514" lon="5.63595">
        <ele>261</ele>
        <time>2018-02-20T09:03:50Z</time>
      </trkpt>
      <trkpt lat="47.10498" lon="5.63596">
        <ele>261</ele>
        <time>2018-02-20T09:04:00Z</time>
      </trkpt>
      <trkpt lat="47.10483" lon="5.63605">
        <ele>261</ele>
        <time>2018-02-20T09:04:11Z</time>
      </trkpt>
      <trkpt lat="47.10472" lon="5.63608">
        <ele>261</ele>
        <time>2018-02-20T09:04:18Z</time>
      </trkpt>
      <trkpt lat="47.10458" lon="5.6361">
        <ele>260</ele>
        <time>2018-02-20T09:04:28Z</time>
      </trkpt>
      <trkpt lat="47.10453" lon="5.63614">
        <ele>260</ele>
        <time>2018-02-20T09:04:33Z</time>
      </trkpt>
      <trkpt lat="47.10447" lon="5.63616">
        <ele>260</ele>
        <time>2018-02-20T09:04:36Z</time>
      </trkpt>
      <trkpt lat="47.10441" lon="5.63617">
        <ele>260</ele>
        <time>2018-02-20T09:04:40Z</time>
      </trkpt>
      <trkpt lat="47.10435" lon="5.63619">
        <ele>260</ele>
        <time>2018-02-20T09:04:43Z</time>
      </trkpt>
      <trkpt lat="47.10408" lon="5.63622">
        <ele>258</ele>
        <time>2018-02-20T09:05:03Z</time>
      </trkpt>
      <trkpt lat="47.10403" lon="5.63625">
        <ele>258</ele>
        <time>2018-02-20T09:05:09Z</time>
      </trkpt>
      <trkpt lat="47.10394" lon="5.63632">
        <ele>258</ele>
        <time>2018-02-20T09:05:16Z</time>
      </trkpt>
      <trkpt lat="47.10389" lon="5.63635">
        <ele>258</ele>
        <time>2018-02-20T09:05:19Z</time>
      </trkpt>
      <trkpt lat="47.10359" lon="5.63639">
        <ele>258</ele>
        <time>2018-02-20T09:05:41Z</time>
      </trkpt>
      <trkpt lat="47.10355" lon="5.63642">
        <ele>258</ele>
        <time>2018-02-20T09:05:47Z</time>
      </trkpt>
      <trkpt lat="47.1035" lon="5.63645">
        <ele>258</ele>
        <time>2018-02-20T09:05:53Z</time>
      </trkpt>
      <trkpt lat="47.1035" lon="5.63652">
        <ele>258</ele>
        <time>2018-02-20T09:06:13Z</time>
      </trkpt>
      <trkpt lat="47.10345" lon="5.63652">
        <ele>258</ele>
        <time>2018-02-20T09:07:48Z</time>
      </trkpt>
      <trkpt lat="47.1034" lon="5.63656">
        <ele>258</ele>
        <time>2018-02-20T09:07:53Z</time>
      </trkpt>
      <trkpt lat="47.10326" lon="5.63661">
        <ele>258</ele>
        <time>2018-02-20T09:08:05Z</time>
      </trkpt>
      <trkpt lat="47.10321" lon="5.63661">
        <ele>259</ele>
        <time>2018-02-20T09:08:12Z</time>
      </trkpt>
      <trkpt lat="47.10338" lon="5.63662">
        <ele>257</ele>
        <time>2018-02-20T09:09:04Z</time>
      </trkpt>
      <trkpt lat="47.10358" lon="5.63662">
        <ele>258</ele>
        <time>2018-02-20T09:09:18Z</time>
      </trkpt>
      <trkpt lat="47.1036" lon="5.63653">
        <ele>258</ele>
        <time>2018-02-20T09:11:23Z</time>
      </trkpt>
      <trkpt lat="47.10351" lon="5.63643">
        <ele>258</ele>
        <time>2018-02-20T09:12:14Z</time>
      </trkpt>
      <trkpt lat="47.10334" lon="5.63589">
        <ele>258</ele>
        <time>2018-02-20T09:12:38Z</time>
      </trkpt>
      <trkpt lat="47.10333" lon="5.63575">
        <ele>259</ele>
        <time>2018-02-20T09:12:45Z</time>
      </trkpt>
      <trkpt lat="47.1033" lon="5.63561">
        <ele>260</ele>
        <time>2018-02-20T09:12:52Z</time>
      </trkpt>
      <trkpt lat="47.10326" lon="5.63547">
        <ele>261</ele>
        <time>2018-02-20T09:12:59Z</time>
      </trkpt>
      <trkpt lat="47.10318" lon="5.63521">
        <ele>261</ele>
        <time>2018-02-20T09:13:15Z</time>
      </trkpt>
      <trkpt lat="47.10304" lon="5.6345">
        <ele>262</ele>
        <time>2018-02-20T09:13:47Z</time>
      </trkpt>
      <trkpt lat="47.10302" lon="5.63437">
        <ele>262</ele>
        <time>2018-02-20T09:13:53Z</time>
      </trkpt>
      <trkpt lat="47.10299" lon="5.63423">
        <ele>262</ele>
        <time>2018-02-20T09:14:00Z</time>
      </trkpt>
      <trkpt lat="47.10292" lon="5.63397">
        <ele>262</ele>
        <time>2018-02-20T09:14:14Z</time>
      </trkpt>
      <trkpt lat="47.10279" lon="5.63328">
        <ele>262</ele>
        <time>2018-02-20T09:14:51Z</time>
      </trkpt>
      <trkpt lat="47.10278" lon="5.63314">
        <ele>261</ele>
        <time>2018-02-20T09:14:58Z</time>
      </trkpt>
      <trkpt lat="47.1027" lon="5.63287">
        <ele>261</ele>
        <time>2018-02-20T09:15:11Z</time>
      </trkpt>
      <trkpt lat="47.10259" lon="5.63249">
        <ele>259</ele>
        <time>2018-02-20T09:15:33Z</time>
      </trkpt>
      <trkpt lat="47.10259" lon="5.63235">
        <ele>260</ele>
        <time>2018-02-20T09:15:39Z</time>
      </trkpt>
      <trkpt lat="47.10247" lon="5.63181">
        <ele>259</ele>
        <time>2018-02-20T09:16:07Z</time>
      </trkpt>
      <trkpt lat="47.10236" lon="5.63126">
        <ele>260</ele>
        <time>2018-02-20T09:16:33Z</time>
      </trkpt>
      <trkpt lat="47.1022" lon="5.6306">
        <ele>263</ele>
        <time>2018-02-20T09:17:06Z</time>
      </trkpt>
      <trkpt lat="47.10203" lon="5.62995">
        <ele>264</ele>
        <time>2018-02-20T09:17:40Z</time>
      </trkpt>
      <trkpt lat="47.10195" lon="5.62954">
        <ele>264</ele>
        <time>2018-02-20T09:18:02Z</time>
      </trkpt>
      <trkpt lat="47.10185" lon="5.62898">
        <ele>265</ele>
        <time>2018-02-20T09:18:28Z</time>
      </trkpt>
      <trkpt lat="47.10181" lon="5.62884">
        <ele>265</ele>
        <time>2018-02-20T09:18:35Z</time>
      </trkpt>
      <trkpt lat="47.10168" lon="5.62816">
        <ele>264</ele>
        <time>2018-02-20T09:19:11Z</time>
      </trkpt>
      <trkpt lat="47.10159" lon="5.6278">
        <ele>264</ele>
        <time>2018-02-20T09:19:29Z</time>
      </trkpt>
      <trkpt lat="47.10156" lon="5.62767">
        <ele>264</ele>
        <time>2018-02-20T09:19:35Z</time>
      </trkpt>
      <trkpt lat="47.10147" lon="5.62726">
        <ele>262</ele>
        <time>2018-02-20T09:19:55Z</time>
      </trkpt>
      <trkpt lat="47.10142" lon="5.62713">
        <ele>262</ele>
        <time>2018-02-20T09:20:02Z</time>
      </trkpt>
      <trkpt lat="47.10133" lon="5.62677">
        <ele>262</ele>
        <time>2018-02-20T09:20:22Z</time>
      </trkpt>
      <trkpt lat="47.1013" lon="5.62652">
        <ele>261</ele>
        <time>2018-02-20T09:20:34Z</time>
      </trkpt>
      <trkpt lat="47.10119" lon="5.62598">
        <ele>260</ele>
        <time>2018-02-20T09:21:02Z</time>
      </trkpt>
      <trkpt lat="47.10124" lon="5.62586">
        <ele>260</ele>
        <time>2018-02-20T09:21:13Z</time>
      </trkpt>
      <trkpt lat="47.10183" lon="5.62571">
        <ele>260</ele>
        <time>2018-02-20T09:21:49Z</time>
      </trkpt>
      <trkpt lat="47.10221" lon="5.62559">
        <ele>261</ele>
        <time>2018-02-20T09:22:12Z</time>
      </trkpt>
      <trkpt lat="47.10238" lon="5.62546">
        <ele>261</ele>
        <time>2018-02-20T09:22:28Z</time>
      </trkpt>
      <trkpt lat="47.10246" lon="5.62542">
        <ele>261</ele>
        <time>2018-02-20T09:22:34Z</time>
      </trkpt>
      <trkpt lat="47.10283" lon="5.62531">
        <ele>261</ele>
        <time>2018-02-20T09:22:55Z</time>
      </trkpt>
      <trkpt lat="47.10328" lon="5.62509">
        <ele>260</ele>
        <time>2018-02-20T09:23:30Z</time>
      </trkpt>
      <trkpt lat="47.10346" lon="5.625">
        <ele>259</ele>
        <time>2018-02-20T09:23:43Z</time>
      </trkpt>
      <trkpt lat="47.10374" lon="5.62491">
        <ele>260</ele>
        <time>2018-02-20T09:24:04Z</time>
      </trkpt>
      <trkpt lat="47.10433" lon="5.62463">
        <ele>260</ele>
        <time>2018-02-20T09:24:43Z</time>
      </trkpt>
      <trkpt lat="47.10442" lon="5.62458">
        <ele>260</ele>
        <time>2018-02-20T09:24:50Z</time>
      </trkpt>
      <trkpt lat="47.10463" lon="5.62448">
        <ele>260</ele>
        <time>2018-02-20T09:25:06Z</time>
      </trkpt>
      <trkpt lat="47.1048" lon="5.62441">
        <ele>260</ele>
        <time>2018-02-20T09:25:17Z</time>
      </trkpt>
      <trkpt lat="47.10512" lon="5.62435">
        <ele>261</ele>
        <time>2018-02-20T09:25:34Z</time>
      </trkpt>
      <trkpt lat="47.10531" lon="5.62425">
        <ele>261</ele>
        <time>2018-02-20T09:25:49Z</time>
      </trkpt>
      <trkpt lat="47.10569" lon="5.62413">
        <ele>262</ele>
        <time>2018-02-20T09:26:15Z</time>
      </trkpt>
      <trkpt lat="47.10578" lon="5.62404">
        <ele>262</ele>
        <time>2018-02-20T09:26:24Z</time>
      </trkpt>
      <trkpt lat="47.10606" lon="5.62396">
        <ele>263</ele>
        <time>2018-02-20T09:26:41Z</time>
      </trkpt>
      <trkpt lat="47.10619" lon="5.62389">
        <ele>263</ele>
        <time>2018-02-20T09:26:53Z</time>
      </trkpt>
      <trkpt lat="47.10644" lon="5.62375">
        <ele>263</ele>
        <time>2018-02-20T09:27:13Z</time>
      </trkpt>
      <trkpt lat="47.10653" lon="5.62369">
        <ele>263</ele>
        <time>2018-02-20T09:27:21Z</time>
      </trkpt>
      <trkpt lat="47.10671" lon="5.62365">
        <ele>263</ele>
        <time>2018-02-20T09:27:31Z</time>
      </trkpt>
      <trkpt lat="47.10679" lon="5.6236">
        <ele>263</ele>
        <time>2018-02-20T09:27:39Z</time>
      </trkpt>
      <trkpt lat="47.10743" lon="5.62338">
        <ele>260</ele>
        <time>2018-02-20T09:28:17Z</time>
      </trkpt>
      <trkpt lat="47.1076" lon="5.62329">
        <ele>259</ele>
        <time>2018-02-20T09:28:29Z</time>
      </trkpt>
      <trkpt lat="47.1077" lon="5.62326">
        <ele>259</ele>
        <time>2018-02-20T09:28:35Z</time>
      </trkpt>
      <trkpt lat="47.10792" lon="5.62323">
        <ele>259</ele>
        <time>2018-02-20T09:28:45Z</time>
      </trkpt>
      <trkpt lat="47.10802" lon="5.62314">
        <ele>259</ele>
        <time>2018-02-20T09:28:56Z</time>
      </trkpt>
      <trkpt lat="47.1085" lon="5.62296">
        <ele>257</ele>
        <time>2018-02-20T09:29:27Z</time>
      </trkpt>
      <trkpt lat="47.10873" lon="5.62286">
        <ele>257</ele>
        <time>2018-02-20T09:29:42Z</time>
      </trkpt>
      <trkpt lat="47.10883" lon="5.62284">
        <ele>257</ele>
        <time>2018-02-20T09:29:46Z</time>
      </trkpt>
      <trkpt lat="47.10914" lon="5.62267">
        <ele>255</ele>
        <time>2018-02-20T09:30:12Z</time>
      </trkpt>
      <trkpt lat="47.10928" lon="5.62263">
        <ele>255</ele>
        <time>2018-02-20T09:30:20Z</time>
      </trkpt>
      <trkpt lat="47.10956" lon="5.62246">
        <ele>254</ele>
        <time>2018-02-20T09:30:44Z</time>
      </trkpt>
      <trkpt lat="47.11002" lon="5.62231">
        <ele>253</ele>
        <time>2018-02-20T09:31:13Z</time>
      </trkpt>
      <trkpt lat="47.1103" lon="5.62219">
        <ele>252</ele>
        <time>2018-02-20T09:31:32Z</time>
      </trkpt>
      <trkpt lat="47.11057" lon="5.622">
        <ele>251</ele>
        <time>2018-02-20T09:32:02Z</time>
      </trkpt>
      <trkpt lat="47.11097" lon="5.62186">
        <ele>248</ele>
        <time>2018-02-20T09:32:30Z</time>
      </trkpt>
      <trkpt lat="47.1115" lon="5.62167">
        <ele>246</ele>
        <time>2018-02-20T09:33:04Z</time>
      </trkpt>
      <trkpt lat="47.1116" lon="5.62164">
        <ele>245</ele>
        <time>2018-02-20T09:33:10Z</time>
      </trkpt>
      <trkpt lat="47.11167" lon="5.6215">
        <ele>242</ele>
        <time>2018-02-20T09:33:24Z</time>
      </trkpt>
      <trkpt lat="47.11176" lon="5.62148">
        <ele>241</ele>
        <time>2018-02-20T09:33:28Z</time>
      </trkpt>
      <trkpt lat="47.11223" lon="5.62132">
        <ele>238</ele>
        <time>2018-02-20T09:34:01Z</time>
      </trkpt>
      <trkpt lat="47.11269" lon="5.62115">
        <ele>235</ele>
        <time>2018-02-20T09:34:33Z</time>
      </trkpt>
      <trkpt lat="47.113" lon="5.62104">
        <ele>234</ele>
        <time>2018-02-20T09:34:50Z</time>
      </trkpt>
      <trkpt lat="47.11311" lon="5.62093">
        <ele>234</ele>
        <time>2018-02-20T09:35:04Z</time>
      </trkpt>
      <trkpt lat="47.1134" lon="5.62087">
        <ele>233</ele>
        <time>2018-02-20T09:35:18Z</time>
      </trkpt>
      <trkpt lat="47.11349" lon="5.62079">
        <ele>233</ele>
        <time>2018-02-20T09:35:27Z</time>
      </trkpt>
      <trkpt lat="47.11395" lon="5.62058">
        <ele>235</ele>
        <time>2018-02-20T09:35:59Z</time>
      </trkpt>
      <trkpt lat="47.11433" lon="5.62045">
        <ele>241</ele>
        <time>2018-02-20T09:36:28Z</time>
      </trkpt>
      <trkpt lat="47.11442" lon="5.62044">
        <ele>241</ele>
        <time>2018-02-20T09:36:37Z</time>
      </trkpt>
      <trkpt lat="47.1145" lon="5.62035">
        <ele>241</ele>
        <time>2018-02-20T09:36:47Z</time>
      </trkpt>
      <trkpt lat="47.11469" lon="5.6203">
        <ele>243</ele>
        <time>2018-02-20T09:36:58Z</time>
      </trkpt>
      <trkpt lat="47.11478" lon="5.62026">
        <ele>243</ele>
        <time>2018-02-20T09:37:05Z</time>
      </trkpt>
      <trkpt lat="47.11486" lon="5.62018">
        <ele>243</ele>
        <time>2018-02-20T09:37:14Z</time>
      </trkpt>
      <trkpt lat="47.11495" lon="5.62014">
        <ele>243</ele>
        <time>2018-02-20T09:37:19Z</time>
      </trkpt>
      <trkpt lat="47.11504" lon="5.62008">
        <ele>246</ele>
        <time>2018-02-20T09:37:27Z</time>
      </trkpt>
      <trkpt lat="47.11523" lon="5.62004">
        <ele>248</ele>
        <time>2018-02-20T09:37:37Z</time>
      </trkpt>
      <trkpt lat="47.11533" lon="5.61997">
        <ele>242</ele>
        <time>2018-02-20T09:37:44Z</time>
      </trkpt>
      <trkpt lat="47.11548" lon="5.61987">
        <ele>242</ele>
        <time>2018-02-20T09:37:57Z</time>
      </trkpt>
      <trkpt lat="47.11557" lon="5.61983">
        <ele>243</ele>
        <time>2018-02-20T09:38:05Z</time>
      </trkpt>
      <trkpt lat="47.11604" lon="5.61967">
        <ele>246</ele>
        <time>2018-02-20T09:38:36Z</time>
      </trkpt>
      <trkpt lat="47.11613" lon="5.6196">
        <ele>245</ele>
        <time>2018-02-20T09:38:45Z</time>
      </trkpt>
      <trkpt lat="47.11661" lon="5.61938">
        <ele>245</ele>
        <time>2018-02-20T09:39:18Z</time>
      </trkpt>
      <trkpt lat="47.11679" lon="5.61931">
        <ele>249</ele>
        <time>2018-02-20T09:39:30Z</time>
      </trkpt>
      <trkpt lat="47.11724" lon="5.6191">
        <ele>249</ele>
        <time>2018-02-20T09:40:04Z</time>
      </trkpt>
      <trkpt lat="47.11745" lon="5.61905">
        <ele>250</ele>
        <time>2018-02-20T09:40:14Z</time>
      </trkpt>
      <trkpt lat="47.11755" lon="5.61898">
        <ele>252</ele>
        <time>2018-02-20T09:40:28Z</time>
      </trkpt>
      <trkpt lat="47.11777" lon="5.61895">
        <ele>252</ele>
        <time>2018-02-20T09:40:37Z</time>
      </trkpt>
      <trkpt lat="47.11793" lon="5.61882">
        <ele>252</ele>
        <time>2018-02-20T09:40:52Z</time>
      </trkpt>
      <trkpt lat="47.11804" lon="5.61881">
        <ele>252</ele>
        <time>2018-02-20T09:40:57Z</time>
      </trkpt>
      <trkpt lat="47.11823" lon="5.61875">
        <ele>252</ele>
        <time>2018-02-20T09:41:11Z</time>
      </trkpt>
      <trkpt lat="47.11832" lon="5.61871">
        <ele>252</ele>
        <time>2018-02-20T09:41:18Z</time>
      </trkpt>
      <trkpt lat="47.11873" lon="5.61858">
        <ele>253</ele>
        <time>2018-02-20T09:41:43Z</time>
      </trkpt>
      <trkpt lat="47.1188" lon="5.61849">
        <ele>253</ele>
        <time>2018-02-20T09:41:54Z</time>
      </trkpt>
      <trkpt lat="47.11899" lon="5.6184">
        <ele>253</ele>
        <time>2018-02-20T09:42:04Z</time>
      </trkpt>
      <trkpt lat="47.11909" lon="5.61835">
        <ele>253</ele>
        <time>2018-02-20T09:42:12Z</time>
      </trkpt>
      <trkpt lat="47.11927" lon="5.61828">
        <ele>254</ele>
        <time>2018-02-20T09:42:24Z</time>
      </trkpt>
      <trkpt lat="47.11937" lon="5.6182">
        <ele>255</ele>
        <time>2018-02-20T09:42:34Z</time>
      </trkpt>
      <trkpt lat="47.11976" lon="5.61812">
        <ele>257</ele>
        <time>2018-02-20T09:42:58Z</time>
      </trkpt>
      <trkpt lat="47.11984" lon="5.61805">
        <ele>257</ele>
        <time>2018-02-20T09:43:08Z</time>
      </trkpt>
      <trkpt lat="47.12013" lon="5.61795">
        <ele>259</ele>
        <time>2018-02-20T09:43:28Z</time>
      </trkpt>
      <trkpt lat="47.12032" lon="5.61791">
        <ele>259</ele>
        <time>2018-02-20T09:43:38Z</time>
      </trkpt>
      <trkpt lat="47.12037" lon="5.6178">
        <ele>259</ele>
        <time>2018-02-20T09:43:52Z</time>
      </trkpt>
      <trkpt lat="47.12083" lon="5.61763">
        <ele>259</ele>
        <time>2018-02-20T09:44:23Z</time>
      </trkpt>
      <trkpt lat="47.12105" lon="5.61759">
        <ele>260</ele>
        <time>2018-02-20T09:44:38Z</time>
      </trkpt>
      <trkpt lat="47.12114" lon="5.61755">
        <ele>260</ele>
        <time>2018-02-20T09:44:44Z</time>
      </trkpt>
      <trkpt lat="47.12132" lon="5.61748">
        <ele>258</ele>
        <time>2018-02-20T09:44:58Z</time>
      </trkpt>
      <trkpt lat="47.1214" lon="5.61744">
        <ele>258</ele>
        <time>2018-02-20T09:45:05Z</time>
      </trkpt>
      <trkpt lat="47.1215" lon="5.61739">
        <ele>258</ele>
        <time>2018-02-20T09:45:12Z</time>
      </trkpt>
      <trkpt lat="47.12162" lon="5.61739">
        <ele>258</ele>
        <time>2018-02-20T09:45:21Z</time>
      </trkpt>
      <trkpt lat="47.12177" lon="5.61731">
        <ele>257</ele>
        <time>2018-02-20T09:45:31Z</time>
      </trkpt>
      <trkpt lat="47.12215" lon="5.61717">
        <ele>256</ele>
        <time>2018-02-20T09:45:59Z</time>
      </trkpt>
      <trkpt lat="47.12243" lon="5.61706">
        <ele>256</ele>
        <time>2018-02-20T09:46:19Z</time>
      </trkpt>
      <trkpt lat="47.12252" lon="5.61698">
        <ele>254</ele>
        <time>2018-02-20T09:46:29Z</time>
      </trkpt>
      <trkpt lat="47.1226" lon="5.61695">
        <ele>254</ele>
        <time>2018-02-20T09:46:35Z</time>
      </trkpt>
      <trkpt lat="47.12279" lon="5.61687">
        <ele>254</ele>
        <time>2018-02-20T09:46:51Z</time>
      </trkpt>
      <trkpt lat="47.12327" lon="5.61664">
        <ele>251</ele>
        <time>2018-02-20T09:47:27Z</time>
      </trkpt>
      <trkpt lat="47.12373" lon="5.61646">
        <ele>249</ele>
        <time>2018-02-20T09:48:01Z</time>
      </trkpt>
      <trkpt lat="47.1242" lon="5.61628">
        <ele>248</ele>
        <time>2018-02-20T09:48:34Z</time>
      </trkpt>
      <trkpt lat="47.1244" lon="5.6162">
        <ele>248</ele>
        <time>2018-02-20T09:48:48Z</time>
      </trkpt>
      <trkpt lat="47.12486" lon="5.61599">
        <ele>247</ele>
        <time>2018-02-20T09:49:19Z</time>
      </trkpt>
      <trkpt lat="47.12513" lon="5.61586">
        <ele>246</ele>
        <time>2018-02-20T09:49:38Z</time>
      </trkpt>
      <trkpt lat="47.12532" lon="5.61575">
        <ele>244</ele>
        <time>2018-02-20T09:49:52Z</time>
      </trkpt>
      <trkpt lat="47.12549" lon="5.61564">
        <ele>243</ele>
        <time>2018-02-20T09:50:09Z</time>
      </trkpt>
      <trkpt lat="47.12602" lon="5.61537">
        <ele>241</ele>
        <time>2018-02-20T09:50:46Z</time>
      </trkpt>
      <trkpt lat="47.12648" lon="5.61511">
        <ele>240</ele>
        <time>2018-02-20T09:51:21Z</time>
      </trkpt>
      <trkpt lat="47.12677" lon="5.61494">
        <ele>238</ele>
        <time>2018-02-20T09:51:43Z</time>
      </trkpt>
      <trkpt lat="47.12686" lon="5.61489">
        <ele>238</ele>
        <time>2018-02-20T09:51:50Z</time>
      </trkpt>
      <trkpt lat="47.12731" lon="5.61466">
        <ele>237</ele>
        <time>2018-02-20T09:52:22Z</time>
      </trkpt>
      <trkpt lat="47.12751" lon="5.61465">
        <ele>237</ele>
        <time>2018-02-20T09:52:35Z</time>
      </trkpt>
      <trkpt lat="47.12759" lon="5.6146">
        <ele>237</ele>
        <time>2018-02-20T09:52:41Z</time>
      </trkpt>
      <trkpt lat="47.12764" lon="5.61448">
        <ele>238</ele>
        <time>2018-02-20T09:52:50Z</time>
      </trkpt>
      <trkpt lat="47.12771" lon="5.61437">
        <ele>238</ele>
        <time>2018-02-20T09:53:26Z</time>
      </trkpt>
      <trkpt lat="47.12767" lon="5.6143">
        <ele>237</ele>
        <time>2018-02-20T09:55:11Z</time>
      </trkpt>
      <trkpt lat="47.12766" lon="5.61423">
        <ele>237</ele>
        <time>2018-02-20T09:55:45Z</time>
      </trkpt>
      <trkpt lat="47.12763" lon="5.61409">
        <ele>237</ele>
        <time>2018-02-20T09:55:57Z</time>
      </trkpt>
      <trkpt lat="47.12762" lon="5.61402">
        <ele>237</ele>
        <time>2018-02-20T09:56:01Z</time>
      </trkpt>
      <trkpt lat="47.1276" lon="5.61396">
        <ele>237</ele>
        <time>2018-02-20T09:56:04Z</time>
      </trkpt>
      <trkpt lat="47.12744" lon="5.61338">
        <ele>234</ele>
        <time>2018-02-20T09:56:35Z</time>
      </trkpt>
      <trkpt lat="47.12736" lon="5.61307">
        <ele>235</ele>
        <time>2018-02-20T09:56:50Z</time>
      </trkpt>
      <trkpt lat="47.12733" lon="5.61301">
        <ele>235</ele>
        <time>2018-02-20T09:56:53Z</time>
      </trkpt>
      <trkpt lat="47.12731" lon="5.61293">
        <ele>235</ele>
        <time>2018-02-20T09:56:57Z</time>
      </trkpt>
      <trkpt lat="47.12727" lon="5.6128">
        <ele>235</ele>
        <time>2018-02-20T09:57:04Z</time>
      </trkpt>
      <trkpt lat="47.12721" lon="5.61266">
        <ele>235</ele>
        <time>2018-02-20T09:57:12Z</time>
      </trkpt>
      <trkpt lat="47.1272" lon="5.6126">
        <ele>235</ele>
        <time>2018-02-20T09:57:16Z</time>
      </trkpt>
      <trkpt lat="47.12716" lon="5.61245">
        <ele>235</ele>
        <time>2018-02-20T09:57:24Z</time>
      </trkpt>
      <trkpt lat="47.12704" lon="5.61185">
        <ele>235</ele>
        <time>2018-02-20T09:57:55Z</time>
      </trkpt>
      <trkpt lat="47.12702" lon="5.6117">
        <ele>235</ele>
        <time>2018-02-20T09:58:02Z</time>
      </trkpt>
      <trkpt lat="47.127" lon="5.61163">
        <ele>235</ele>
        <time>2018-02-20T09:58:06Z</time>
      </trkpt>
      <trkpt lat="47.12688" lon="5.61107">
        <ele>234</ele>
        <time>2018-02-20T09:58:36Z</time>
      </trkpt>
      <trkpt lat="47.12687" lon="5.611">
        <ele>234</ele>
        <time>2018-02-20T09:58:39Z</time>
      </trkpt>
      <trkpt lat="47.12682" lon="5.6107">
        <ele>233</ele>
        <time>2018-02-20T09:58:53Z</time>
      </trkpt>
      <trkpt lat="47.12673" lon="5.61024">
        <ele>233</ele>
        <time>2018-02-20T09:59:17Z</time>
      </trkpt>
      <trkpt lat="47.12668" lon="5.61004">
        <ele>232</ele>
        <time>2018-02-20T09:59:27Z</time>
      </trkpt>
      <trkpt lat="47.1265" lon="5.60956">
        <ele>231</ele>
        <time>2018-02-20T09:59:52Z</time>
      </trkpt>
      <trkpt lat="47.12644" lon="5.60933">
        <ele>231</ele>
        <time>2018-02-20T10:00:04Z</time>
      </trkpt>
      <trkpt lat="47.12616" lon="5.60873">
        <ele>229</ele>
        <time>2018-02-20T10:00:38Z</time>
      </trkpt>
      <trkpt lat="47.12587" lon="5.60817">
        <ele>226</ele>
        <time>2018-02-20T10:01:12Z</time>
      </trkpt>
      <trkpt lat="47.12567" lon="5.60755">
        <ele>225</ele>
        <time>2018-02-20T10:01:44Z</time>
      </trkpt>
      <trkpt lat="47.1255" lon="5.60692">
        <ele>226</ele>
        <time>2018-02-20T10:02:16Z</time>
      </trkpt>
      <trkpt lat="47.12531" lon="5.6062">
        <ele>224</ele>
        <time>2018-02-20T10:02:53Z</time>
      </trkpt>
      <trkpt lat="47.12523" lon="5.60596">
        <ele>223</ele>
        <time>2018-02-20T10:03:04Z</time>
      </trkpt>
      <trkpt lat="47.12523" lon="5.60582">
        <ele>221</ele>
        <time>2018-02-20T10:03:14Z</time>
      </trkpt>
      <trkpt lat="47.12527" lon="5.60568">
        <ele>222</ele>
        <time>2018-02-20T10:03:21Z</time>
      </trkpt>
      <trkpt lat="47.12529" lon="5.60553">
        <ele>221</ele>
        <time>2018-02-20T10:03:28Z</time>
      </trkpt>
      <trkpt lat="47.12526" lon="5.60539">
        <ele>221</ele>
        <time>2018-02-20T10:03:35Z</time>
      </trkpt>
      <trkpt lat="47.1253" lon="5.60527">
        <ele>221</ele>
        <time>2018-02-20T10:03:41Z</time>
      </trkpt>
      <trkpt lat="47.12528" lon="5.60512">
        <ele>220</ele>
        <time>2018-02-20T10:03:48Z</time>
      </trkpt>
      <trkpt lat="47.12522" lon="5.60501">
        <ele>219</ele>
        <time>2018-02-20T10:03:54Z</time>
      </trkpt>
      <trkpt lat="47.12515" lon="5.60474">
        <ele>217</ele>
        <time>2018-02-20T10:04:07Z</time>
      </trkpt>
      <trkpt lat="47.12515" lon="5.60461">
        <ele>217</ele>
        <time>2018-02-20T10:04:14Z</time>
      </trkpt>
      <trkpt lat="47.12521" lon="5.60451">
        <ele>216</ele>
        <time>2018-02-20T10:04:22Z</time>
      </trkpt>
      <trkpt lat="47.1253" lon="5.60444">
        <ele>216</ele>
        <time>2018-02-20T10:04:32Z</time>
      </trkpt>
      <trkpt lat="47.12538" lon="5.60436">
        <ele>217</ele>
        <time>2018-02-20T10:04:39Z</time>
      </trkpt>
      <trkpt lat="47.12581" lon="5.60404">
        <ele>216</ele>
        <time>2018-02-20T10:05:15Z</time>
      </trkpt>
      <trkpt lat="47.12598" lon="5.60391">
        <ele>217</ele>
        <time>2018-02-20T10:05:28Z</time>
      </trkpt>
      <trkpt lat="47.12616" lon="5.60382">
        <ele>216</ele>
        <time>2018-02-20T10:05:41Z</time>
      </trkpt>
      <trkpt lat="47.12625" lon="5.60374">
        <ele>216</ele>
        <time>2018-02-20T10:05:49Z</time>
      </trkpt>
      <trkpt lat="47.12651" lon="5.60362">
        <ele>216</ele>
        <time>2018-02-20T10:06:09Z</time>
      </trkpt>
      <trkpt lat="47.12661" lon="5.60354">
        <ele>215</ele>
        <time>2018-02-20T10:06:17Z</time>
      </trkpt>
      <trkpt lat="47.12688" lon="5.60342">
        <ele>214</ele>
        <time>2018-02-20T10:06:37Z</time>
      </trkpt>
      <trkpt lat="47.12715" lon="5.60335">
        <ele>214</ele>
        <time>2018-02-20T10:06:57Z</time>
      </trkpt>
      <trkpt lat="47.12725" lon="5.60335">
        <ele>214</ele>
        <time>2018-02-20T10:07:04Z</time>
      </trkpt>
      <trkpt lat="47.12743" lon="5.60345">
        <ele>213</ele>
        <time>2018-02-20T10:07:20Z</time>
      </trkpt>
      <trkpt lat="47.12751" lon="5.60355">
        <ele>213</ele>
        <time>2018-02-20T10:07:28Z</time>
      </trkpt>
      <trkpt lat="47.12768" lon="5.60364">
        <ele>213</ele>
        <time>2018-02-20T10:07:44Z</time>
      </trkpt>
      <trkpt lat="47.12788" lon="5.60374">
        <ele>213</ele>
        <time>2018-02-20T10:08:02Z</time>
      </trkpt>
      <trkpt lat="47.12808" lon="5.60379">
        <ele>213</ele>
        <time>2018-02-20T10:08:17Z</time>
      </trkpt>
      <trkpt lat="47.12818" lon="5.60383">
        <ele>213</ele>
        <time>2018-02-20T10:08:24Z</time>
      </trkpt>
      <trkpt lat="47.12827" lon="5.60382">
        <ele>213</ele>
        <time>2018-02-20T10:08:30Z</time>
      </trkpt>
      <trkpt lat="47.12873" lon="5.60361">
        <ele>208</ele>
        <time>2018-02-20T10:09:09Z</time>
      </trkpt>
      <trkpt lat="47.12902" lon="5.60358">
        <ele>207</ele>
        <time>2018-02-20T10:09:31Z</time>
      </trkpt>
      <trkpt lat="47.12911" lon="5.60357">
        <ele>207</ele>
        <time>2018-02-20T10:09:40Z</time>
      </trkpt>
      <trkpt lat="47.12937" lon="5.6035">
        <ele>205</ele>
        <time>2018-02-20T10:10:03Z</time>
      </trkpt>
      <trkpt lat="47.12941" lon="5.60346">
        <ele>205</ele>
        <time>2018-02-20T10:10:07Z</time>
      </trkpt>
      <trkpt lat="47.12949" lon="5.60337">
        <ele>205</ele>
        <time>2018-02-20T10:10:16Z</time>
      </trkpt>
      <trkpt lat="47.12953" lon="5.60332">
        <ele>205</ele>
        <time>2018-02-20T10:10:22Z</time>
      </trkpt>
      <trkpt lat="47.12969" lon="5.60316">
        <ele>205</ele>
        <time>2018-02-20T10:10:46Z</time>
      </trkpt>
      <trkpt lat="47.12964" lon="5.60312">
        <ele>205</ele>
        <time>2018-02-20T10:11:02Z</time>
      </trkpt>
    </trkseg>
  </trk>
</gpx>